sensor_id;sensor_type;location;lat;lon;timestamp;P1;P2;P0
55686;PMS5003;41911;52.362;4.978;2023-06-19T00:00:29;22.0;22.0;
55686;PMS5003;41911;52.362;4.978;2023-06-19T00:01:00;24.0;23.0;
55686;PMS5003;41911;52.362;4.978;2023-06-19T00:01:31;24.0;24.0;
55686;PMS5003;41911;52.362;4.978;2023-06-19T00:02:02;22.0;21.0;
55686;PMS5003;41911;52.362;4.978;2023-06-19T00:02:33;26.0;23.0;
55686;PMS5003;41911;52.362;4.978;2023-06-19T00:03:04;27.0;27.0;
55686;PMS5003;41911;52.362;4.978;2023-06-19T00:03:34;22.0;22.0;
55686;PMS5003;41911;52.362;4.978;2023-06-19T00:04:05;22.0;22.0;
55686;PMS5003;41911;52.362;4.978;2023-06-19T00:04:36;23.0;23.0;
55686;PMS5003;41911;52.362;4.978;2023-06-19T00:05:08;26.0;26.0;
55686;PMS5003;41911;52.362;4.978;2023-06-19T00:05:39;26.0;25.0;
55686;PMS5003;41911;52.362;4.978;2023-06-19T00:06:10;24.0;23.0;
55686;PMS5003;41911;52.362;4.978;2023-06-19T00:06:41;24.0;22.0;
55686;PMS5003;41911;52.362;4.978;2023-06-19T00:07:12;24.0;24.0;
55686;PMS5003;41911;52.362;4.978;2023-06-19T00:07:43;26.0;26.0;
55686;PMS5003;41911;52.362;4.978;2023-06-19T00:08:14;22.0;22.0;
55686;PMS5003;41911;52.362;4.978;2023-06-19T00:08:45;22.0;21.0;
55686;PMS5003;41911;52.362;4.978;2023-06-19T00:09:16;23.0;23.0;
55686;PMS5003;41911;52.362;4.978;2023-06-19T00:09:47;22.0;22.0;
55686;PMS5003;41911;52.362;4.978;2023-06-19T00:10:18;22.0;21.0;
55686;PMS5003;41911;52.362;4.978;2023-06-19T00:10:49;24.0;24.0;
55686;PMS5003;41911;52.362;4.978;2023-06-19T00:11:20;22.0;21.0;
55686;PMS5003;41911;52.362;4.978;2023-06-19T00:11:51;28.0;27.0;
55686;PMS5003;41911;52.362;4.978;2023-06-19T00:12:22;20.0;20.0;
55686;PMS5003;41911;52.362;4.978;2023-06-19T00:12:53;23.0;23.0;
55686;PMS5003;41911;52.362;4.978;2023-06-19T00:13:24;22.0;22.0;
55686;PMS5003;41911;52.362;4.978;2023-06-19T00:13:55;21.0;21.0;
55686;PMS5003;41911;52.362;4.978;2023-06-19T00:14:26;24.0;24.0;
55686;PMS5003;41911;52.362;4.978;2023-06-19T00:14:57;25.0;24.0;
55686;PMS5003;41911;52.362;4.978;2023-06-19T00:15:28;23.0;22.0;
55686;PMS5003;41911;52.362;4.978;2023-06-19T00:15:59;22.0;22.0;
55686;PMS5003;41911;52.362;4.978;2023-06-19T00:16:30;25.0;25.0;
55686;PMS5003;41911;52.362;4.978;2023-06-19T00:17:01;26.0;24.0;
55686;PMS5003;41911;52.362;4.978;2023-06-19T00:17:32;26.0;25.0;
55686;PMS5003;41911;52.362;4.978;2023-06-19T00:18:03;22.0;22.0;
55686;PMS5003;41911;52.362;4.978;2023-06-19T00:18:34;27.0;26.0;
55686;PMS5003;41911;52.362;4.978;2023-06-19T00:19:05;28.0;26.0;
55686;PMS5003;41911;52.362;4.978;2023-06-19T00:19:36;27.0;26.0;
55686;PMS5003;41911;52.362;4.978;2023-06-19T00:20:07;23.0;23.0;
55686;PMS5003;41911;52.362;4.978;2023-06-19T00:20:38;23.0;23.0;
55686;PMS5003;41911;52.362;4.978;2023-06-19T00:21:09;25.0;25.0;
55686;PMS5003;41911;52.362;4.978;2023-06-19T00:21:40;22.0;22.0;
55686;PMS5003;41911;52.362;4.978;2023-06-19T00:22:11;23.0;22.0;
55686;PMS5003;41911;52.362;4.978;2023-06-19T00:22:42;20.0;20.0;
55686;PMS5003;41911;52.362;4.978;2023-06-19T00:23:13;25.0;23.0;
55686;PMS5003;41911;52.362;4.978;2023-06-19T00:23:44;24.0;24.0;
55686;PMS5003;41911;52.362;4.978;2023-06-19T00:24:15;28.0;26.0;
55686;PMS5003;41911;52.362;4.978;2023-06-19T00:24:46;24.0;24.0;
55686;PMS5003;41911;52.362;4.978;2023-06-19T00:25:17;24.0;24.0;
55686;PMS5003;41911;52.362;4.978;2023-06-19T00:25:48;26.0;24.0;
55686;PMS5003;41911;52.362;4.978;2023-06-19T00:26:19;25.0;25.0;
55686;PMS5003;41911;52.362;4.978;2023-06-19T00:26:51;24.0;23.0;
55686;PMS5003;41911;52.362;4.978;2023-06-19T00:27:21;27.0;27.0;
55686;PMS5003;41911;52.362;4.978;2023-06-19T00:27:52;29.0;26.0;
55686;PMS5003;41911;52.362;4.978;2023-06-19T00:28:23;25.0;24.0;
55686;PMS5003;41911;52.362;4.978;2023-06-19T00:28:54;23.0;21.0;
55686;PMS5003;41911;52.362;4.978;2023-06-19T00:29:25;25.0;25.0;
55686;PMS5003;41911;52.362;4.978;2023-06-19T00:29:56;26.0;25.0;
55686;PMS5003;41911;52.362;4.978;2023-06-19T00:30:27;23.0;22.0;
55686;PMS5003;41911;52.362;4.978;2023-06-19T00:30:58;24.0;24.0;
55686;PMS5003;41911;52.362;4.978;2023-06-19T00:31:29;22.0;22.0;
55686;PMS5003;41911;52.362;4.978;2023-06-19T00:31:59;24.0;24.0;
55686;PMS5003;41911;52.362;4.978;2023-06-19T00:32:30;24.0;24.0;
55686;PMS5003;41911;52.362;4.978;2023-06-19T00:33:01;27.0;27.0;
55686;PMS5003;41911;52.362;4.978;2023-06-19T00:33:32;29.0;28.0;
55686;PMS5003;41911;52.362;4.978;2023-06-19T00:34:03;22.0;22.0;
55686;PMS5003;41911;52.362;4.978;2023-06-19T00:34:34;25.0;25.0;
55686;PMS5003;41911;52.362;4.978;2023-06-19T00:35:05;21.0;20.0;
55686;PMS5003;41911;52.362;4.978;2023-06-19T00:35:37;25.0;24.0;
55686;PMS5003;41911;52.362;4.978;2023-06-19T00:36:08;26.0;26.0;
55686;PMS5003;41911;52.362;4.978;2023-06-19T00:36:40;27.0;27.0;
55686;PMS5003;41911;52.362;4.978;2023-06-19T00:37:10;25.0;24.0;
55686;PMS5003;41911;52.362;4.978;2023-06-19T00:37:41;25.0;25.0;
55686;PMS5003;41911;52.362;4.978;2023-06-19T00:38:12;21.0;21.0;
55686;PMS5003;41911;52.362;4.978;2023-06-19T00:38:43;20.0;20.0;
55686;PMS5003;41911;52.362;4.978;2023-06-19T00:39:14;25.0;24.0;
55686;PMS5003;41911;52.362;4.978;2023-06-19T00:39:45;22.0;22.0;
55686;PMS5003;41911;52.362;4.978;2023-06-19T00:40:19;23.0;23.0;
55686;PMS5003;41911;52.362;4.978;2023-06-19T00:40:56;27.0;26.0;
55686;PMS5003;41911;52.362;4.978;2023-06-19T00:41:27;19.0;19.0;
55686;PMS5003;41911;52.362;4.978;2023-06-19T00:41:58;23.0;23.0;
55686;PMS5003;41911;52.362;4.978;2023-06-19T00:42:29;23.0;23.0;
55686;PMS5003;41911;52.362;4.978;2023-06-19T00:43:00;22.0;22.0;
55686;PMS5003;41911;52.362;4.978;2023-06-19T00:43:32;24.0;23.0;
55686;PMS5003;41911;52.362;4.978;2023-06-19T00:44:03;21.0;21.0;
55686;PMS5003;41911;52.362;4.978;2023-06-19T00:44:34;23.0;23.0;
55686;PMS5003;41911;52.362;4.978;2023-06-19T00:45:05;21.0;19.0;
55686;PMS5003;41911;52.362;4.978;2023-06-19T00:45:38;22.0;21.0;
55686;PMS5003;41911;52.362;4.978;2023-06-19T00:46:09;22.0;20.0;
55686;PMS5003;41911;52.362;4.978;2023-06-19T00:46:41;20.0;20.0;
55686;PMS5003;41911;52.362;4.978;2023-06-19T00:47:12;22.0;22.0;
55686;PMS5003;41911;52.362;4.978;2023-06-19T00:47:43;21.0;21.0;
55686;PMS5003;41911;52.362;4.978;2023-06-19T00:48:15;21.0;20.0;
55686;PMS5003;41911;52.362;4.978;2023-06-19T00:48:46;22.0;21.0;
55686;PMS5003;41911;52.362;4.978;2023-06-19T00:49:18;21.0;21.0;
55686;PMS5003;41911;52.362;4.978;2023-06-19T00:49:49;27.0;25.0;
55686;PMS5003;41911;52.362;4.978;2023-06-19T00:50:20;20.0;20.0;
55686;PMS5003;41911;52.362;4.978;2023-06-19T00:50:51;19.0;18.0;
55686;PMS5003;41911;52.362;4.978;2023-06-19T00:51:22;18.0;17.0;
55686;PMS5003;41911;52.362;4.978;2023-06-19T00:51:53;20.0;20.0;
55686;PMS5003;41911;52.362;4.978;2023-06-19T00:52:24;20.0;19.0;
55686;PMS5003;41911;52.362;4.978;2023-06-19T00:52:55;19.0;19.0;
55686;PMS5003;41911;52.362;4.978;2023-06-19T00:53:27;26.0;25.0;
55686;PMS5003;41911;52.362;4.978;2023-06-19T00:53:58;19.0;18.0;
55686;PMS5003;41911;52.362;4.978;2023-06-19T00:54:29;19.0;18.0;
55686;PMS5003;41911;52.362;4.978;2023-06-19T00:55:01;18.0;18.0;
55686;PMS5003;41911;52.362;4.978;2023-06-19T00:55:33;20.0;19.0;
55686;PMS5003;41911;52.362;4.978;2023-06-19T00:56:05;19.0;19.0;
55686;PMS5003;41911;52.362;4.978;2023-06-19T00:56:37;17.0;16.0;
55686;PMS5003;41911;52.362;4.978;2023-06-19T00:57:08;17.0;17.0;
55686;PMS5003;41911;52.362;4.978;2023-06-19T00:57:40;23.0;22.0;
55686;PMS5003;41911;52.362;4.978;2023-06-19T00:58:11;19.0;19.0;
55686;PMS5003;41911;52.362;4.978;2023-06-19T00:58:42;18.0;18.0;
55686;PMS5003;41911;52.362;4.978;2023-06-19T00:59:15;17.0;16.0;
55686;PMS5003;41911;52.362;4.978;2023-06-19T00:59:46;18.0;18.0;
55686;PMS5003;41911;52.362;4.978;2023-06-19T01:00:19;23.0;23.0;
55686;PMS5003;41911;52.362;4.978;2023-06-19T01:00:50;21.0;19.0;
55686;PMS5003;41911;52.362;4.978;2023-06-19T01:01:21;17.0;17.0;
55686;PMS5003;41911;52.362;4.978;2023-06-19T01:01:52;18.0;16.0;
55686;PMS5003;41911;52.362;4.978;2023-06-19T01:02:23;17.0;17.0;
55686;PMS5003;41911;52.362;4.978;2023-06-19T01:02:54;19.0;18.0;
55686;PMS5003;41911;52.362;4.978;2023-06-19T01:03:25;18.0;18.0;
55686;PMS5003;41911;52.362;4.978;2023-06-19T01:03:56;17.0;17.0;
55686;PMS5003;41911;52.362;4.978;2023-06-19T01:04:27;18.0;17.0;
55686;PMS5003;41911;52.362;4.978;2023-06-19T01:04:58;20.0;19.0;
55686;PMS5003;41911;52.362;4.978;2023-06-19T01:05:29;17.0;16.0;
55686;PMS5003;41911;52.362;4.978;2023-06-19T01:06:00;15.0;14.0;
55686;PMS5003;41911;52.362;4.978;2023-06-19T01:06:36;16.0;16.0;
55686;PMS5003;41911;52.362;4.978;2023-06-19T01:07:12;16.0;16.0;
55686;PMS5003;41911;52.362;4.978;2023-06-19T01:07:49;18.0;18.0;
55686;PMS5003;41911;52.362;4.978;2023-06-19T01:08:33;18.0;18.0;
55686;PMS5003;41911;52.362;4.978;2023-06-19T01:09:14;18.0;17.0;
55686;PMS5003;41911;52.362;4.978;2023-06-19T01:09:48;18.0;17.0;
55686;PMS5003;41911;52.362;4.978;2023-06-19T01:10:24;19.0;17.0;
55686;PMS5003;41911;52.362;4.978;2023-06-19T01:10:59;16.0;16.0;
55686;PMS5003;41911;52.362;4.978;2023-06-19T01:11:38;15.0;15.0;
55686;PMS5003;41911;52.362;4.978;2023-06-19T01:12:15;18.0;18.0;
55686;PMS5003;41911;52.362;4.978;2023-06-19T01:12:51;17.0;16.0;
55686;PMS5003;41911;52.362;4.978;2023-06-19T01:13:27;18.0;16.0;
55686;PMS5003;41911;52.362;4.978;2023-06-19T01:14:06;18.0;16.0;
55686;PMS5003;41911;52.362;4.978;2023-06-19T01:14:50;14.0;14.0;
55686;PMS5003;41911;52.362;4.978;2023-06-19T01:15:24;16.0;16.0;
55686;PMS5003;41911;52.362;4.978;2023-06-19T01:15:56;14.0;13.0;
55686;PMS5003;41911;52.362;4.978;2023-06-19T01:16:29;14.0;14.0;
55686;PMS5003;41911;52.362;4.978;2023-06-19T01:17:02;16.0;15.0;
55686;PMS5003;41911;52.362;4.978;2023-06-19T01:17:33;15.0;15.0;
55686;PMS5003;41911;52.362;4.978;2023-06-19T01:18:06;14.0;14.0;
55686;PMS5003;41911;52.362;4.978;2023-06-19T01:18:37;16.0;16.0;
55686;PMS5003;41911;52.362;4.978;2023-06-19T01:19:10;13.0;13.0;
55686;PMS5003;41911;52.362;4.978;2023-06-19T01:19:44;13.0;13.0;
55686;PMS5003;41911;52.362;4.978;2023-06-19T01:20:15;12.0;12.0;
55686;PMS5003;41911;52.362;4.978;2023-06-19T01:20:47;14.0;14.0;
55686;PMS5003;41911;52.362;4.978;2023-06-19T01:21:19;14.0;14.0;
55686;PMS5003;41911;52.362;4.978;2023-06-19T01:21:50;15.0;14.0;
55686;PMS5003;41911;52.362;4.978;2023-06-19T01:22:23;13.0;13.0;
55686;PMS5003;41911;52.362;4.978;2023-06-19T01:22:56;14.0;13.0;
55686;PMS5003;41911;52.362;4.978;2023-06-19T01:23:27;13.0;12.0;
55686;PMS5003;41911;52.362;4.978;2023-06-19T01:23:58;14.0;14.0;
55686;PMS5003;41911;52.362;4.978;2023-06-19T01:24:29;10.0;10.0;
55686;PMS5003;41911;52.362;4.978;2023-06-19T01:25:00;11.0;11.0;
55686;PMS5003;41911;52.362;4.978;2023-06-19T01:25:30;13.0;13.0;
55686;PMS5003;41911;52.362;4.978;2023-06-19T01:26:01;13.0;12.0;
55686;PMS5003;41911;52.362;4.978;2023-06-19T01:26:32;12.0;12.0;
55686;PMS5003;41911;52.362;4.978;2023-06-19T01:27:03;11.0;10.0;
55686;PMS5003;41911;52.362;4.978;2023-06-19T01:27:35;13.0;12.0;
55686;PMS5003;41911;52.362;4.978;2023-06-19T01:28:07;11.0;11.0;
55686;PMS5003;41911;52.362;4.978;2023-06-19T01:28:40;13.0;12.0;
55686;PMS5003;41911;52.362;4.978;2023-06-19T01:29:13;12.0;12.0;
55686;PMS5003;41911;52.362;4.978;2023-06-19T01:29:46;10.0;10.0;
55686;PMS5003;41911;52.362;4.978;2023-06-19T01:30:17;10.0;9.0;
55686;PMS5003;41911;52.362;4.978;2023-06-19T01:30:48;12.0;12.0;
55686;PMS5003;41911;52.362;4.978;2023-06-19T01:31:20;12.0;12.0;
55686;PMS5003;41911;52.362;4.978;2023-06-19T01:31:54;11.0;11.0;
55686;PMS5003;41911;52.362;4.978;2023-06-19T01:32:40;12.0;12.0;
55686;PMS5003;41911;52.362;4.978;2023-06-19T01:33:17;13.0;12.0;
55686;PMS5003;41911;52.362;4.978;2023-06-19T01:33:53;9.0;9.0;
55686;PMS5003;41911;52.362;4.978;2023-06-19T01:34:25;10.0;10.0;
55686;PMS5003;41911;52.362;4.978;2023-06-19T01:34:59;9.0;9.0;
55686;PMS5003;41911;52.362;4.978;2023-06-19T01:35:38;10.0;10.0;
55686;PMS5003;41911;52.362;4.978;2023-06-19T01:36:11;11.0;11.0;
55686;PMS5003;41911;52.362;4.978;2023-06-19T01:36:44;9.0;8.0;
55686;PMS5003;41911;52.362;4.978;2023-06-19T01:37:17;10.0;9.0;
55686;PMS5003;41911;52.362;4.978;2023-06-19T01:37:49;10.0;9.0;
55686;PMS5003;41911;52.362;4.978;2023-06-19T01:38:23;8.0;8.0;
55686;PMS5003;41911;52.362;4.978;2023-06-19T01:38:55;9.0;8.0;
55686;PMS5003;41911;52.362;4.978;2023-06-19T01:39:28;7.0;6.0;
55686;PMS5003;41911;52.362;4.978;2023-06-19T01:40:00;6.0;6.0;
55686;PMS5003;41911;52.362;4.978;2023-06-19T01:40:34;7.0;6.0;
55686;PMS5003;41911;52.362;4.978;2023-06-19T01:41:07;6.0;6.0;
55686;PMS5003;41911;52.362;4.978;2023-06-19T01:41:39;4.0;4.0;
55686;PMS5003;41911;52.362;4.978;2023-06-19T01:42:11;9.0;9.0;
55686;PMS5003;41911;52.362;4.978;2023-06-19T01:42:43;8.0;8.0;
55686;PMS5003;41911;52.362;4.978;2023-06-19T01:43:14;5.0;4.0;
55686;PMS5003;41911;52.362;4.978;2023-06-19T01:43:47;6.0;6.0;
55686;PMS5003;41911;52.362;4.978;2023-06-19T01:44:19;6.0;6.0;
55686;PMS5003;41911;52.362;4.978;2023-06-19T01:44:50;6.0;6.0;
55686;PMS5003;41911;52.362;4.978;2023-06-19T01:45:22;6.0;5.0;
55686;PMS5003;41911;52.362;4.978;2023-06-19T01:45:53;7.0;6.0;
55686;PMS5003;41911;52.362;4.978;2023-06-19T01:46:25;6.0;5.0;
55686;PMS5003;41911;52.362;4.978;2023-06-19T01:46:57;4.0;4.0;
55686;PMS5003;41911;52.362;4.978;2023-06-19T01:47:28;5.0;5.0;
55686;PMS5003;41911;52.362;4.978;2023-06-19T01:47:59;5.0;5.0;
55686;PMS5003;41911;52.362;4.978;2023-06-19T01:48:30;6.0;6.0;
55686;PMS5003;41911;52.362;4.978;2023-06-19T01:49:01;4.0;4.0;
55686;PMS5003;41911;52.362;4.978;2023-06-19T01:49:36;5.0;5.0;
55686;PMS5003;41911;52.362;4.978;2023-06-19T01:50:07;4.0;4.0;
55686;PMS5003;41911;52.362;4.978;2023-06-19T01:50:39;4.0;4.0;
55686;PMS5003;41911;52.362;4.978;2023-06-19T01:51:11;4.0;4.0;
55686;PMS5003;41911;52.362;4.978;2023-06-19T01:51:42;3.0;3.0;
55686;PMS5003;41911;52.362;4.978;2023-06-19T01:52:13;4.0;4.0;
55686;PMS5003;41911;52.362;4.978;2023-06-19T01:52:44;6.0;6.0;
55686;PMS5003;41911;52.362;4.978;2023-06-19T01:53:15;4.0;4.0;
55686;PMS5003;41911;52.362;4.978;2023-06-19T01:53:46;5.0;4.0;
55686;PMS5003;41911;52.362;4.978;2023-06-19T01:54:17;5.0;5.0;
55686;PMS5003;41911;52.362;4.978;2023-06-19T01:54:48;5.0;5.0;
55686;PMS5003;41911;52.362;4.978;2023-06-19T01:55:19;2.0;2.0;
55686;PMS5003;41911;52.362;4.978;2023-06-19T01:55:50;3.0;3.0;
55686;PMS5003;41911;52.362;4.978;2023-06-19T01:56:21;3.0;3.0;
55686;PMS5003;41911;52.362;4.978;2023-06-19T01:56:53;4.0;4.0;
55686;PMS5003;41911;52.362;4.978;2023-06-19T01:57:24;4.0;4.0;
55686;PMS5003;41911;52.362;4.978;2023-06-19T01:57:55;4.0;4.0;
55686;PMS5003;41911;52.362;4.978;2023-06-19T01:58:25;4.0;4.0;
55686;PMS5003;41911;52.362;4.978;2023-06-19T01:58:56;3.0;3.0;
55686;PMS5003;41911;52.362;4.978;2023-06-19T01:59:27;3.0;3.0;
55686;PMS5003;41911;52.362;4.978;2023-06-19T01:59:58;5.0;5.0;
55686;PMS5003;41911;52.362;4.978;2023-06-19T02:00:29;5.0;4.0;
55686;PMS5003;41911;52.362;4.978;2023-06-19T02:01:00;5.0;5.0;
55686;PMS5003;41911;52.362;4.978;2023-06-19T02:01:31;5.0;5.0;
55686;PMS5003;41911;52.362;4.978;2023-06-19T02:02:02;4.0;4.0;
55686;PMS5003;41911;52.362;4.978;2023-06-19T02:02:33;4.0;4.0;
55686;PMS5003;41911;52.362;4.978;2023-06-19T02:03:04;4.0;4.0;
55686;PMS5003;41911;52.362;4.978;2023-06-19T02:03:35;5.0;5.0;
55686;PMS5003;41911;52.362;4.978;2023-06-19T02:04:06;5.0;5.0;
55686;PMS5003;41911;52.362;4.978;2023-06-19T02:04:37;5.0;5.0;
55686;PMS5003;41911;52.362;4.978;2023-06-19T02:05:08;5.0;5.0;
55686;PMS5003;41911;52.362;4.978;2023-06-19T02:05:39;6.0;6.0;
55686;PMS5003;41911;52.362;4.978;2023-06-19T02:06:10;7.0;7.0;
55686;PMS5003;41911;52.362;4.978;2023-06-19T02:06:41;7.0;7.0;
55686;PMS5003;41911;52.362;4.978;2023-06-19T02:07:12;6.0;6.0;
55686;PMS5003;41911;52.362;4.978;2023-06-19T02:07:43;6.0;6.0;
55686;PMS5003;41911;52.362;4.978;2023-06-19T02:08:14;5.0;5.0;
55686;PMS5003;41911;52.362;4.978;2023-06-19T02:08:44;5.0;4.0;
55686;PMS5003;41911;52.362;4.978;2023-06-19T02:09:15;7.0;6.0;
55686;PMS5003;41911;52.362;4.978;2023-06-19T02:09:47;8.0;8.0;
55686;PMS5003;41911;52.362;4.978;2023-06-19T02:10:18;6.0;5.0;
55686;PMS5003;41911;52.362;4.978;2023-06-19T02:10:49;8.0;7.0;
55686;PMS5003;41911;52.362;4.978;2023-06-19T02:11:20;9.0;9.0;
55686;PMS5003;41911;52.362;4.978;2023-06-19T02:11:51;8.0;8.0;
55686;PMS5003;41911;52.362;4.978;2023-06-19T02:12:22;14.0;13.0;
55686;PMS5003;41911;52.362;4.978;2023-06-19T02:12:53;4.0;4.0;
55686;PMS5003;41911;52.362;4.978;2023-06-19T02:13:24;7.0;6.0;
55686;PMS5003;41911;52.362;4.978;2023-06-19T02:13:55;8.0;7.0;
55686;PMS5003;41911;52.362;4.978;2023-06-19T02:14:26;7.0;6.0;
55686;PMS5003;41911;52.362;4.978;2023-06-19T02:14:57;8.0;8.0;
55686;PMS5003;41911;52.362;4.978;2023-06-19T02:15:28;7.0;7.0;
55686;PMS5003;41911;52.362;4.978;2023-06-19T02:15:59;5.0;5.0;
55686;PMS5003;41911;52.362;4.978;2023-06-19T02:16:29;9.0;8.0;
55686;PMS5003;41911;52.362;4.978;2023-06-19T02:17:00;3.0;3.0;
55686;PMS5003;41911;52.362;4.978;2023-06-19T02:17:31;7.0;6.0;
55686;PMS5003;41911;52.362;4.978;2023-06-19T02:18:02;5.0;4.0;
55686;PMS5003;41911;52.362;4.978;2023-06-19T02:18:34;5.0;5.0;
55686;PMS5003;41911;52.362;4.978;2023-06-19T02:19:05;5.0;5.0;
55686;PMS5003;41911;52.362;4.978;2023-06-19T02:19:36;6.0;6.0;
55686;PMS5003;41911;52.362;4.978;2023-06-19T02:20:07;5.0;5.0;
55686;PMS5003;41911;52.362;4.978;2023-06-19T02:20:39;7.0;7.0;
55686;PMS5003;41911;52.362;4.978;2023-06-19T02:21:10;4.0;3.0;
55686;PMS5003;41911;52.362;4.978;2023-06-19T02:21:41;7.0;7.0;
55686;PMS5003;41911;52.362;4.978;2023-06-19T02:22:12;7.0;7.0;
55686;PMS5003;41911;52.362;4.978;2023-06-19T02:22:43;7.0;6.0;
55686;PMS5003;41911;52.362;4.978;2023-06-19T02:23:14;4.0;4.0;
55686;PMS5003;41911;52.362;4.978;2023-06-19T02:23:45;7.0;6.0;
55686;PMS5003;41911;52.362;4.978;2023-06-19T02:24:16;8.0;8.0;
55686;PMS5003;41911;52.362;4.978;2023-06-19T02:24:47;8.0;7.0;
55686;PMS5003;41911;52.362;4.978;2023-06-19T02:25:18;6.0;6.0;
55686;PMS5003;41911;52.362;4.978;2023-06-19T02:25:49;8.0;7.0;
55686;PMS5003;41911;52.362;4.978;2023-06-19T02:26:20;7.0;7.0;
55686;PMS5003;41911;52.362;4.978;2023-06-19T02:26:51;8.0;8.0;
55686;PMS5003;41911;52.362;4.978;2023-06-19T02:27:22;6.0;6.0;
55686;PMS5003;41911;52.362;4.978;2023-06-19T02:27:53;10.0;10.0;
55686;PMS5003;41911;52.362;4.978;2023-06-19T02:28:24;10.0;10.0;
55686;PMS5003;41911;52.362;4.978;2023-06-19T02:28:55;8.0;8.0;
55686;PMS5003;41911;52.362;4.978;2023-06-19T02:29:26;8.0;8.0;
55686;PMS5003;41911;52.362;4.978;2023-06-19T02:29:56;8.0;8.0;
55686;PMS5003;41911;52.362;4.978;2023-06-19T02:30:28;11.0;11.0;
55686;PMS5003;41911;52.362;4.978;2023-06-19T02:30:59;12.0;12.0;
55686;PMS5003;41911;52.362;4.978;2023-06-19T02:31:30;12.0;11.0;
55686;PMS5003;41911;52.362;4.978;2023-06-19T02:32:01;12.0;11.0;
55686;PMS5003;41911;52.362;4.978;2023-06-19T02:32:32;12.0;11.0;
55686;PMS5003;41911;52.362;4.978;2023-06-19T02:33:03;12.0;12.0;
55686;PMS5003;41911;52.362;4.978;2023-06-19T02:33:34;13.0;13.0;
55686;PMS5003;41911;52.362;4.978;2023-06-19T02:34:05;15.0;13.0;
55686;PMS5003;41911;52.362;4.978;2023-06-19T02:34:36;10.0;10.0;
55686;PMS5003;41911;52.362;4.978;2023-06-19T02:35:09;13.0;13.0;
55686;PMS5003;41911;52.362;4.978;2023-06-19T02:35:40;13.0;13.0;
55686;PMS5003;41911;52.362;4.978;2023-06-19T02:36:11;12.0;12.0;
55686;PMS5003;41911;52.362;4.978;2023-06-19T02:36:42;14.0;13.0;
55686;PMS5003;41911;52.362;4.978;2023-06-19T02:37:13;12.0;12.0;
55686;PMS5003;41911;52.362;4.978;2023-06-19T02:37:44;13.0;12.0;
55686;PMS5003;41911;52.362;4.978;2023-06-19T02:38:15;10.0;9.0;
55686;PMS5003;41911;52.362;4.978;2023-06-19T02:38:46;18.0;18.0;
55686;PMS5003;41911;52.362;4.978;2023-06-19T02:39:17;13.0;12.0;
55686;PMS5003;41911;52.362;4.978;2023-06-19T02:39:48;15.0;15.0;
55686;PMS5003;41911;52.362;4.978;2023-06-19T02:40:19;15.0;14.0;
55686;PMS5003;41911;52.362;4.978;2023-06-19T02:40:50;15.0;14.0;
55686;PMS5003;41911;52.362;4.978;2023-06-19T02:41:21;11.0;11.0;
55686;PMS5003;41911;52.362;4.978;2023-06-19T02:41:52;14.0;14.0;
55686;PMS5003;41911;52.362;4.978;2023-06-19T02:42:23;15.0;15.0;
55686;PMS5003;41911;52.362;4.978;2023-06-19T02:42:54;13.0;13.0;
55686;PMS5003;41911;52.362;4.978;2023-06-19T02:43:25;12.0;11.0;
55686;PMS5003;41911;52.362;4.978;2023-06-19T02:43:55;17.0;17.0;
55686;PMS5003;41911;52.362;4.978;2023-06-19T02:44:26;13.0;13.0;
55686;PMS5003;41911;52.362;4.978;2023-06-19T02:44:57;14.0;12.0;
55686;PMS5003;41911;52.362;4.978;2023-06-19T02:45:28;12.0;12.0;
55686;PMS5003;41911;52.362;4.978;2023-06-19T02:45:59;14.0;14.0;
55686;PMS5003;41911;52.362;4.978;2023-06-19T02:46:30;12.0;11.0;
55686;PMS5003;41911;52.362;4.978;2023-06-19T02:47:01;11.0;11.0;
55686;PMS5003;41911;52.362;4.978;2023-06-19T02:47:32;13.0;13.0;
55686;PMS5003;41911;52.362;4.978;2023-06-19T02:48:04;13.0;13.0;
55686;PMS5003;41911;52.362;4.978;2023-06-19T02:48:35;14.0;14.0;
55686;PMS5003;41911;52.362;4.978;2023-06-19T02:49:06;15.0;15.0;
55686;PMS5003;41911;52.362;4.978;2023-06-19T02:49:37;17.0;17.0;
55686;PMS5003;41911;52.362;4.978;2023-06-19T02:50:08;13.0;12.0;
55686;PMS5003;41911;52.362;4.978;2023-06-19T02:50:39;15.0;15.0;
55686;PMS5003;41911;52.362;4.978;2023-06-19T02:51:10;16.0;15.0;
55686;PMS5003;41911;52.362;4.978;2023-06-19T02:51:41;15.0;15.0;
55686;PMS5003;41911;52.362;4.978;2023-06-19T02:52:12;14.0;14.0;
55686;PMS5003;41911;52.362;4.978;2023-06-19T02:52:43;12.0;12.0;
55686;PMS5003;41911;52.362;4.978;2023-06-19T02:53:14;15.0;15.0;
55686;PMS5003;41911;52.362;4.978;2023-06-19T02:53:45;14.0;14.0;
55686;PMS5003;41911;52.362;4.978;2023-06-19T02:54:15;14.0;13.0;
55686;PMS5003;41911;52.362;4.978;2023-06-19T02:54:46;14.0;14.0;
55686;PMS5003;41911;52.362;4.978;2023-06-19T02:55:17;14.0;14.0;
55686;PMS5003;41911;52.362;4.978;2023-06-19T02:55:48;15.0;14.0;
55686;PMS5003;41911;52.362;4.978;2023-06-19T02:56:19;15.0;14.0;
55686;PMS5003;41911;52.362;4.978;2023-06-19T02:56:50;15.0;14.0;
55686;PMS5003;41911;52.362;4.978;2023-06-19T02:57:21;13.0;13.0;
55686;PMS5003;41911;52.362;4.978;2023-06-19T02:57:52;13.0;13.0;
55686;PMS5003;41911;52.362;4.978;2023-06-19T02:58:23;14.0;14.0;
55686;PMS5003;41911;52.362;4.978;2023-06-19T02:58:54;14.0;14.0;
55686;PMS5003;41911;52.362;4.978;2023-06-19T02:59:24;11.0;11.0;
55686;PMS5003;41911;52.362;4.978;2023-06-19T02:59:55;16.0;16.0;
55686;PMS5003;41911;52.362;4.978;2023-06-19T03:00:26;15.0;14.0;
55686;PMS5003;41911;52.362;4.978;2023-06-19T03:00:57;17.0;16.0;
55686;PMS5003;41911;52.362;4.978;2023-06-19T03:01:28;17.0;17.0;
55686;PMS5003;41911;52.362;4.978;2023-06-19T03:01:59;14.0;14.0;
55686;PMS5003;41911;52.362;4.978;2023-06-19T03:02:30;19.0;19.0;
55686;PMS5003;41911;52.362;4.978;2023-06-19T03:03:01;14.0;14.0;
55686;PMS5003;41911;52.362;4.978;2023-06-19T03:03:32;16.0;16.0;
55686;PMS5003;41911;52.362;4.978;2023-06-19T03:04:03;15.0;15.0;
55686;PMS5003;41911;52.362;4.978;2023-06-19T03:04:34;14.0;14.0;
55686;PMS5003;41911;52.362;4.978;2023-06-19T03:05:05;15.0;15.0;
55686;PMS5003;41911;52.362;4.978;2023-06-19T03:05:36;17.0;16.0;
55686;PMS5003;41911;52.362;4.978;2023-06-19T03:06:07;13.0;13.0;
55686;PMS5003;41911;52.362;4.978;2023-06-19T03:06:38;15.0;15.0;
55686;PMS5003;41911;52.362;4.978;2023-06-19T03:07:09;17.0;17.0;
55686;PMS5003;41911;52.362;4.978;2023-06-19T03:07:40;16.0;15.0;
55686;PMS5003;41911;52.362;4.978;2023-06-19T03:08:11;19.0;17.0;
55686;PMS5003;41911;52.362;4.978;2023-06-19T03:08:42;17.0;17.0;
55686;PMS5003;41911;52.362;4.978;2023-06-19T03:09:13;18.0;17.0;
55686;PMS5003;41911;52.362;4.978;2023-06-19T03:09:44;17.0;16.0;
55686;PMS5003;41911;52.362;4.978;2023-06-19T03:10:15;18.0;17.0;
55686;PMS5003;41911;52.362;4.978;2023-06-19T03:10:46;14.0;13.0;
55686;PMS5003;41911;52.362;4.978;2023-06-19T03:11:17;16.0;16.0;
55686;PMS5003;41911;52.362;4.978;2023-06-19T03:11:48;15.0;14.0;
55686;PMS5003;41911;52.362;4.978;2023-06-19T03:12:19;15.0;14.0;
55686;PMS5003;41911;52.362;4.978;2023-06-19T03:12:49;15.0;15.0;
55686;PMS5003;41911;52.362;4.978;2023-06-19T03:13:20;13.0;13.0;
55686;PMS5003;41911;52.362;4.978;2023-06-19T03:13:52;15.0;14.0;
55686;PMS5003;41911;52.362;4.978;2023-06-19T03:14:24;16.0;16.0;
55686;PMS5003;41911;52.362;4.978;2023-06-19T03:14:55;18.0;17.0;
55686;PMS5003;41911;52.362;4.978;2023-06-19T03:15:25;15.0;14.0;
55686;PMS5003;41911;52.362;4.978;2023-06-19T03:15:56;17.0;17.0;
55686;PMS5003;41911;52.362;4.978;2023-06-19T03:16:27;20.0;20.0;
55686;PMS5003;41911;52.362;4.978;2023-06-19T03:16:58;19.0;19.0;
55686;PMS5003;41911;52.362;4.978;2023-06-19T03:17:29;18.0;17.0;
55686;PMS5003;41911;52.362;4.978;2023-06-19T03:18:00;17.0;16.0;
55686;PMS5003;41911;52.362;4.978;2023-06-19T03:18:31;18.0;18.0;